Time;durP1;ratioP1;P1;durP2;ratioP2;P2;SDS_P1;SDS_P2;PMS_P1;PMS_P2;Temp;Humidity;BMP_temperature;BMP_pressure;BME280_temperature;BME280_humidity;BME280_pressure;Samples;Min_cycle;Max_cycle;Signal;HPM_P1;HPM_P2
2022/07/23 00:00:09;;;;;;;2.50;2.20;;;14.20;99.90;;;;;;5058405;28;20139;-66
2022/07/23 00:02:35;;;;;;;3.65;2.10;;;14.20;99.90;;;;;;5064668;28;20044;-67
2022/07/23 00:05:00;;;;;;;3.83;2.78;;;14.20;99.90;;;;;;5060534;28;20040;-67
2022/07/23 00:07:26;;;;;;;4.53;2.65;;;14.20;99.90;;;;;;5065218;28;20051;-68
2022/07/23 00:09:52;;;;;;;4.60;2.40;;;14.20;99.90;;;;;;5059321;28;20039;-68
2022/07/23 00:12:17;;;;;;;5.65;3.25;;;14.20;99.90;;;;;;5059863;28;20517;-68
2022/07/23 00:14:43;;;;;;;5.68;2.92;;;14.20;99.90;;;;;;5058388;28;20358;-68
2022/07/23 00:17:08;;;;;;;3.15;2.80;;;14.20;99.90;;;;;;5057704;28;20099;-68
2022/07/23 00:19:34;;;;;;;3.50;3.20;;;14.20;99.90;;;;;;5059538;28;20037;-67
2022/07/23 00:21:59;;;;;;;2.80;2.53;;;14.10;99.90;;;;;;5061913;28;20053;-66
2022/07/23 00:24:25;;;;;;;3.33;3.03;;;14.10;99.90;;;;;;5060369;28;20053;-67
2022/07/23 00:26:50;;;;;;;3.55;2.80;;;14.00;99.90;;;;;;5060709;28;20120;-67
2022/07/23 00:29:16;;;;;;;3.15;2.90;;;14.00;99.90;;;;;;5062106;28;20363;-67
2022/07/23 00:31:41;;;;;;;3.53;2.97;;;14.00;99.90;;;;;;5058750;28;20060;-67
2022/07/23 00:34:07;;;;;;;3.35;2.58;;;13.90;99.90;;;;;;5059960;28;20041;-67
2022/07/23 00:36:33;;;;;;;3.83;3.08;;;13.90;99.90;;;;;;5071875;28;20032;-66
2022/07/23 00:38:58;;;;;;;4.35;2.30;;;13.80;99.90;;;;;;5068307;28;20059;-67
2022/07/23 00:41:24;;;;;;;3.45;2.60;;;13.70;99.90;;;;;;5065539;28;20382;-67
2022/07/23 00:43:50;;;;;;;2.95;2.70;;;13.70;99.90;;;;;;5062399;28;20647;-67
2022/07/23 00:46:22;;;;;;;3.85;2.33;;;13.60;99.90;;;;;;5071764;28;20478;-68
2022/07/23 00:48:48;;;;;;;2.67;2.40;;;13.60;99.90;;;;;;5070502;28;20562;-67
2022/07/23 00:51:17;;;;;;;2.80;2.60;;;13.50;99.90;;;;;;5064680;28;20060;-66
2022/07/23 00:53:44;;;;;;;3.17;2.10;;;13.50;99.90;;;;;;5033345;28;20532;-66
2022/07/23 00:56:10;;;;;;;3.00;2.05;;;13.40;99.90;;;;;;5046781;28;20052;-67
2022/07/23 00:58:38;;;;;;;2.35;2.15;;;13.40;99.90;;;;;;5060310;28;20040;-67
2022/07/23 01:01:04;;;;;;;2.17;2.08;;;13.30;99.90;;;;;;5066795;28;20087;-67
2022/07/23 01:03:30;;;;;;;4.05;2.90;;;13.30;99.90;;;;;;5062620;28;20128;-67
2022/07/23 01:05:56;;;;;;;3.13;2.75;;;13.30;99.90;;;;;;5066824;28;20048;-67
2022/07/23 01:08:22;;;;;;;2.85;2.65;;;13.30;99.90;;;;;;5044494;28;20048;-66
2022/07/23 01:10:51;;;;;;;2.70;2.50;;;13.20;99.90;;;;;;5056566;28;20045;-66
2022/07/23 01:13:16;;;;;;;2.97;2.60;;;13.20;99.90;;;;;;5054961;28;20052;-68
2022/07/23 01:15:42;;;;;;;3.15;2.40;;;13.20;99.90;;;;;;5065203;28;20033;-68
2022/07/23 01:18:08;;;;;;;2.92;2.42;;;13.20;99.90;;;;;;5051287;28;20045;-67
2022/07/23 01:20:34;;;;;;;3.22;2.50;;;13.20;99.90;;;;;;5053168;28;20047;-67
2022/07/23 01:22:59;;;;;;;3.08;2.88;;;13.10;99.90;;;;;;5051222;28;20065;-67
2022/07/23 01:25:25;;;;;;;3.10;2.90;;;13.10;99.90;;;;;;5055731;28;20045;-67
2022/07/23 01:27:52;;;;;;;3.30;3.00;;;13.10;99.90;;;;;;5068587;28;20106;-67
2022/07/23 01:30:19;;;;;;;3.17;2.90;;;13.00;99.90;;;;;;5065420;28;20099;-67
2022/07/23 01:32:44;;;;;;;3.08;2.83;;;13.00;99.90;;;;;;5051493;28;20429;-67
2022/07/23 01:35:10;;;;;;;3.20;2.92;;;13.00;99.90;;;;;;5049328;28;20091;-67
2022/07/23 01:37:37;;;;;;;3.05;2.75;;;12.90;99.90;;;;;;5048626;28;20037;-67
2022/07/23 01:40:04;;;;;;;3.00;2.58;;;;;;;;;;5053309;28;20036;-67
2022/07/23 01:42:29;;;;;;;6.03;2.72;;;12.80;99.90;;;;;;5069214;28;20074;-67
2022/07/23 01:44:55;;;;;;;3.50;2.63;;;12.80;99.90;;;;;;5055193;28;20045;-67
2022/07/23 01:47:21;;;;;;;3.13;2.90;;;12.80;99.90;;;;;;5048453;28;20045;-67
2022/07/23 01:49:46;;;;;;;3.28;2.97;;;12.70;99.90;;;;;;5047717;28;20052;-68
2022/07/23 01:52:12;;;;;;;3.00;2.80;;;12.70;99.90;;;;;;5060270;28;20124;-67
2022/07/23 01:54:39;;;;;;;3.15;2.70;;;12.70;99.90;;;;;;5050093;28;20445;-67
2022/07/23 01:57:05;;;;;;;3.50;3.20;;;12.60;99.90;;;;;;5058883;28;20044;-68
2022/07/23 01:59:32;;;;;;;3.40;3.10;;;12.60;99.90;;;;;;5073656;28;20040;-67
2022/07/23 02:01:57;;;;;;;4.40;3.15;;;12.50;99.90;;;;;;5058223;28;20432;-67
2022/07/23 02:04:24;;;;;;;4.55;3.25;;;12.50;99.90;;;;;;5071988;28;20107;-67
2022/07/23 02:06:50;;;;;;;4.93;3.25;;;12.50;99.90;;;;;;5074315;28;20127;-67
2022/07/23 02:09:16;;;;;;;2.92;2.72;;;12.50;99.90;;;;;;5073198;28;20052;-67
2022/07/23 02:11:41;;;;;;;4.18;2.58;;;12.40;99.90;;;;;;5069883;28;20036;-67
2022/07/23 02:14:07;;;;;;;2.85;2.63;;;12.40;99.90;;;;;;5066923;28;20064;-67
2022/07/23 02:16:33;;;;;;;2.20;2.00;;;12.40;99.90;;;;;;5063208;28;20032;-67
2022/07/23 02:18:58;;;;;;;1.85;1.42;;;12.40;99.90;;;;;;5070076;28;20049;-67
2022/07/23 02:21:24;;;;;;;2.13;1.50;;;12.40;99.90;;;;;;5063494;28;20110;-67
2022/07/23 02:23:49;;;;;;;2.13;1.10;;;12.30;99.90;;;;;;5055495;28;20095;-67
2022/07/23 02:26:15;;;;;;;1.00;1.00;;;12.30;99.90;;;;;;5060592;28;20102;-67
2022/07/23 02:28:40;;;;;;;1.35;1.00;;;12.20;99.90;;;;;;5060299;28;20044;-68
2022/07/23 02:31:06;;;;;;;2.00;1.30;;;;;;;;;;5064007;28;20067;-67
2022/07/23 02:33:33;;;;;;;0.60;0.60;;;12.20;99.90;;;;;;5056318;28;20036;-67
2022/07/23 02:35:58;;;;;;;0.68;0.68;;;12.10;99.90;;;;;;5065018;28;20477;-67
2022/07/23 02:38:24;;;;;;;1.10;0.90;;;12.10;99.90;;;;;;5066569;28;20056;-67
2022/07/23 02:40:49;;;;;;;1.27;1.00;;;12.00;99.90;;;;;;5055929;28;20044;-67
2022/07/23 02:43:15;;;;;;;1.23;0.80;;;12.00;99.90;;;;;;5065894;28;20492;-67
2022/07/23 02:45:40;;;;;;;0.70;0.55;;;12.00;99.90;;;;;;5052246;28;20040;-67
2022/07/23 02:48:06;;;;;;;0.55;0.55;;;11.90;99.90;;;;;;5062304;28;20044;-68
2022/07/23 02:50:32;;;;;;;0.80;0.80;;;11.90;99.90;;;;;;5067160;28;20076;-67
2022/07/23 02:52:57;;;;;;;0.60;0.60;;;11.80;99.90;;;;;;5063198;28;20040;-68
2022/07/23 02:55:23;;;;;;;0.98;0.90;;;11.80;99.90;;;;;;5066295;28;20041;-67
2022/07/23 02:57:48;;;;;;;1.05;0.60;;;11.80;99.90;;;;;;5052588;28;20060;-67
2022/07/23 03:00:14;;;;;;;0.75;0.75;;;11.70;99.90;;;;;;5060549;28;20056;-67
2022/07/23 03:02:40;;;;;;;0.85;0.65;;;11.70;99.90;;;;;;5068124;28;20059;-67
2022/07/23 03:05:06;;;;;;;0.95;0.82;;;11.60;99.90;;;;;;5067636;28;20051;-67
2022/07/23 03:07:31;;;;;;;0.80;0.77;;;11.60;99.90;;;;;;5072568;28;20132;-68
2022/07/23 03:09:57;;;;;;;0.80;0.80;;;11.60;99.90;;;;;;5072898;28;20131;-67
2022/07/23 03:12:22;;;;;;;0.90;0.90;;;11.60;99.90;;;;;;5070598;28;20041;-67
2022/07/23 03:14:48;;;;;;;1.10;1.00;;;11.60;99.90;;;;;;5054329;28;20059;-67
2022/07/23 03:17:14;;;;;;;1.15;0.80;;;11.50;99.90;;;;;;5058752;28;20044;-68
2022/07/23 03:19:39;;;;;;;1.50;0.80;;;11.50;99.90;;;;;;5053930;28;20044;-68
2022/07/23 03:22:05;;;;;;;0.93;0.77;;;11.50;99.90;;;;;;5051198;28;20052;-67
2022/07/23 03:27:15;;;;;;;2.33;0.73;;;11.50;99.90;;;;;;5051508;28;20085;-66
2022/07/23 03:29:41;;;;;;;0.82;0.82;;;11.40;99.90;;;;;;5058444;28;20115;-68
2022/07/23 03:32:07;;;;;;;1.23;0.77;;;11.40;99.90;;;;;;5071321;28;20036;-67
2022/07/23 03:34:32;;;;;;;2.17;0.80;;;11.40;99.90;;;;;;5058980;28;20037;-67
2022/07/23 03:36:58;;;;;;;1.05;0.90;;;11.40;99.90;;;;;;5061507;28;20063;-67
2022/07/23 03:39:24;;;;;;;2.72;1.33;;;11.40;99.90;;;;;;5067777;28;20052;-67
2022/07/23 03:41:49;;;;;;;1.20;1.10;;;11.30;99.90;;;;;;5062505;28;20049;-68
2022/07/23 03:44:15;;;;;;;2.20;1.48;;;11.30;99.90;;;;;;5060001;28;20489;-67
2022/07/23 03:46:40;;;;;;;2.85;1.98;;;11.30;99.90;;;;;;5043713;28;20775;-68
2022/07/23 03:49:06;;;;;;;1.30;1.20;;;11.30;99.90;;;;;;5065707;28;20426;-68
2022/07/23 03:51:32;;;;;;;2.13;1.15;;;11.30;99.90;;;;;;5059219;28;20440;-67
2022/07/23 03:53:57;;;;;;;1.85;1.05;;;11.30;99.90;;;;;;5063588;28;20040;-67
2022/07/23 03:56:23;;;;;;;1.85;1.10;;;11.20;99.90;;;;;;5064884;28;20048;-67
2022/07/23 03:58:49;;;;;;;1.80;0.93;;;11.30;99.90;;;;;;5068060;28;20033;-67
2022/07/23 04:01:14;;;;;;;2.05;1.10;;;11.30;99.90;;;;;;5065262;28;20067;-67
2022/07/23 04:03:40;;;;;;;1.17;1.02;;;11.30;99.90;;;;;;5064669;28;20086;-68
2022/07/23 04:06:06;;;;;;;1.33;1.23;;;11.30;99.90;;;;;;5066995;28;20084;-68
2022/07/23 04:08:31;;;;;;;2.55;1.50;;;11.30;99.90;;;;;;5053496;28;20032;-67
2022/07/23 04:10:57;;;;;;;2.15;1.15;;;11.30;99.90;;;;;;5080955;28;20530;-68
2022/07/23 04:13:23;;;;;;;2.45;1.40;;;11.30;99.90;;;;;;5049962;28;20040;-68
2022/07/23 04:15:49;;;;;;;1.60;1.42;;;11.30;99.90;;;;;;5060544;28;20029;-66
2022/07/23 04:18:17;;;;;;;3.47;1.92;;;11.20;99.90;;;;;;5068973;28;20037;-67
2022/07/23 04:20:43;;;;;;;1.95;1.67;;;11.20;99.90;;;;;;5070456;28;20040;-67
2022/07/23 04:23:09;;;;;;;1.88;1.50;;;11.20;99.90;;;;;;5067906;28;20461;-67
2022/07/23 04:25:36;;;;;;;2.67;1.90;;;11.20;99.90;;;;;;5051939;28;20060;-68
2022/07/23 04:28:02;;;;;;;2.38;1.80;;;11.20;99.90;;;;;;5055635;28;20041;-67
2022/07/23 04:30:27;;;;;;;1.75;1.65;;;11.20;99.90;;;;;;5051502;28;20079;-67
2022/07/23 04:32:53;;;;;;;1.33;1.23;;;11.30;99.90;;;;;;5068310;28;20129;-67
2022/07/23 04:35:19;;;;;;;1.55;1.25;;;11.30;99.90;;;;;;5065142;28;20042;-67
2022/07/23 04:37:44;;;;;;;1.30;1.20;;;11.30;99.90;;;;;;5060782;28;20111;-67
2022/07/23 04:40:11;;;;;;;2.65;1.50;;;11.30;99.90;;;;;;5068800;28;20048;-66
2022/07/23 04:42:37;;;;;;;1.50;1.40;;;11.40;99.90;;;;;;5051917;28;20040;-67
2022/07/23 04:45:03;;;;;;;4.03;1.83;;;11.40;99.90;;;;;;5067074;28;20554;-67
2022/07/23 04:47:30;;;;;;;2.15;1.95;;;11.40;99.90;;;;;;5069838;28;20115;-67
2022/07/23 04:49:56;;;;;;;4.63;2.08;;;11.50;99.90;;;;;;5069996;28;20097;-66
2022/07/23 04:52:22;;;;;;;4.28;2.20;;;11.50;99.90;;;;;;5069973;28;20040;-66
2022/07/23 04:54:48;;;;;;;1.83;1.73;;;11.60;99.90;;;;;;5071146;28;20032;-66
2022/07/23 04:57:14;;;;;;;3.90;2.83;;;11.60;99.90;;;;;;5067832;28;20045;-66
2022/07/23 04:59:39;;;;;;;3.35;2.65;;;11.70;99.90;;;;;;5053260;28;20077;-67
2022/07/23 05:02:05;;;;;;;4.22;3.10;;;11.70;99.90;;;;;;5066983;28;20059;-67
2022/07/23 05:04:31;;;;;;;3.13;2.83;;;11.80;99.90;;;;;;5070208;28;20406;-67
2022/07/23 05:06:57;;;;;;;5.07;3.03;;;11.90;99.90;;;;;;5069820;28;20040;-67
2022/07/23 05:09:23;;;;;;;5.40;3.20;;;12.00;99.90;;;;;;5058050;28;20045;-67
2022/07/23 05:11:48;;;;;;;5.43;3.33;;;12.00;99.90;;;;;;5061202;28;20483;-66
2022/07/23 05:14:14;;;;;;;6.72;5.10;;;12.10;99.90;;;;;;5050666;28;20055;-67
2022/07/23 05:16:40;;;;;;;5.70;5.20;;;12.30;99.90;;;;;;5051702;28;20037;-67
2022/07/23 05:19:05;;;;;;;5.78;5.15;;;12.40;99.90;;;;;;5065185;28;20033;-67
2022/07/23 05:21:31;;;;;;;5.75;4.90;;;12.60;99.90;;;;;;5051098;28;20120;-67
2022/07/23 05:23:56;;;;;;;6.50;5.45;;;12.70;99.90;;;;;;5060576;28;20466;-67
2022/07/23 05:26:22;;;;;;;6.15;5.07;;;12.80;99.90;;;;;;5049810;28;20057;-67
2022/07/23 05:28:47;;;;;;;6.75;5.28;;;12.90;99.90;;;;;;5052673;28;20666;-67
2022/07/23 05:31:13;;;;;;;6.80;6.03;;;13.10;99.90;;;;;;5067045;28;20056;-67
2022/07/23 05:33:39;;;;;;;6.03;5.43;;;13.20;99.90;;;;;;5056379;28;20033;-67
2022/07/23 05:36:05;;;;;;;8.07;5.85;;;13.30;99.90;;;;;;5060667;28;20716;-67
2022/07/23 05:38:32;;;;;;;5.70;5.10;;;13.40;99.90;;;;;;5057948;28;20130;-67
2022/07/23 05:40:58;;;;;;;6.30;5.70;;;13.50;99.90;;;;;;5061497;28;20086;-67
2022/07/23 05:43:23;;;;;;;5.85;5.22;;;13.60;99.90;;;;;;5066176;28;20430;-67
2022/07/23 05:45:49;;;;;;;5.47;4.95;;;13.70;99.90;;;;;;5066069;28;20515;-66
2022/07/23 05:48:14;;;;;;;6.25;5.05;;;13.90;99.90;;;;;;5066497;28;20052;-67
2022/07/23 05:50:40;;;;;;;8.63;5.22;;;14.10;99.90;;;;;;5068186;28;20044;-68
2022/07/23 05:53:05;;;;;;;6.60;5.28;;;14.20;99.90;;;;;;5071424;28;20383;-67
2022/07/23 05:55:31;;;;;;;6.10;5.22;;;14.30;99.90;;;;;;5053512;28;20033;-67
2022/07/23 05:58:00;;;;;;;5.00;4.38;;;14.50;99.90;;;;;;5057200;28;20041;-67
2022/07/23 06:00:27;;;;;;;6.38;4.15;;;14.90;99.90;;;;;;5084983;28;20119;-67
2022/07/23 06:02:52;;;;;;;5.07;3.72;;;16.80;99.90;;;;;;5067525;28;20052;-67
2022/07/23 06:05:18;;;;;;;3.42;3.00;;;18.20;99.90;;;;;;5070966;28;20052;-67
2022/07/23 06:07:44;;;;;;;3.60;2.80;;;19.70;99.90;;;;;;5058828;28;20029;-67
2022/07/23 06:10:10;;;;;;;5.38;2.70;;;21.90;99.90;;;;;;5056010;28;20048;-67
2022/07/23 06:12:36;;;;;;;3.05;2.38;;;21.90;99.90;;;;;;5055504;28;20033;-67
2022/07/23 06:15:02;;;;;;;3.53;2.35;;;22.90;99.90;;;;;;5053527;28;20163;-67
2022/07/23 06:17:28;;;;;;;3.72;2.05;;;23.60;99.90;;;;;;5053973;28;20090;-66
2022/07/23 06:19:54;;;;;;;3.80;1.90;;;24.40;96.60;;;;;;5063140;28;20128;-68
2022/07/23 06:22:20;;;;;;;3.20;1.63;;;25.10;96.80;;;;;;5069525;28;20127;-67
2022/07/23 06:24:45;;;;;;;4.53;1.98;;;25.80;94.90;;;;;;5060920;28;20055;-67
2022/07/23 06:27:11;;;;;;;1.92;1.52;;;26.20;94.30;;;;;;5069483;28;20097;-67
2022/07/23 06:29:37;;;;;;;4.32;2.15;;;26.70;92.30;;;;;;5072412;28;20036;-67
2022/07/23 06:32:02;;;;;;;1.85;1.50;;;27.10;91.20;;;;;;5072138;28;20041;-66
2022/07/23 06:34:28;;;;;;;4.80;1.75;;;27.40;90.80;;;;;;5065694;28;20475;-67
2022/07/23 06:36:54;;;;;;;2.72;1.58;;;27.90;88.90;;;;;;5051204;28;20037;-67
2022/07/23 06:39:19;;;;;;;4.22;1.58;;;28.10;89.10;;;;;;5050113;28;20051;-68
2022/07/23 06:41:45;;;;;;;1.55;1.17;;;28.10;85.10;;;;;;5052651;28;20041;-67
2022/07/23 06:44:10;;;;;;;3.33;1.42;;;27.90;84.60;;;;;;5057479;28;20040;-67
2022/07/23 06:46:36;;;;;;;5.38;1.20;;;28.40;85.10;;;;;;5053802;28;20059;-68
2022/07/23 06:49:03;;;;;;;1.92;1.30;;;29.00;85.80;;;;;;5065410;28;20044;-67
2022/07/23 06:51:29;;;;;;;2.45;0.90;;;29.50;85.20;;;;;;5071126;28;20053;-68
2022/07/23 06:53:55;;;;;;;3.17;1.23;;;28.90;78.30;;;;;;5063106;28;20052;-68
2022/07/23 06:56:20;;;;;;;2.13;1.10;;;29.30;78.90;;;;;;5051946;28;20072;-67
2022/07/23 06:58:46;;;;;;;2.10;0.82;;;29.50;78.50;;;;;;5072549;28;20051;-67
2022/07/23 07:01:12;;;;;;;2.40;0.90;;;29.30;75.20;;;;;;5071415;28;20110;-67
2022/07/23 07:03:37;;;;;;;2.03;0.70;;;29.60;77.20;;;;;;5071798;28;20033;-67
2022/07/23 07:06:03;;;;;;;1.42;0.90;;;29.70;75.00;;;;;;5071803;28;20066;-67
2022/07/23 07:08:29;;;;;;;3.72;1.00;;;29.40;73.00;;;;;;5072952;28;20032;-68
2022/07/23 07:10:54;;;;;;;1.98;0.93;;;28.90;73.30;;;;;;5062501;28;20045;-67
2022/07/23 07:13:20;;;;;;;1.67;0.70;;;29.50;73.50;;;;;;5051718;28;20356;-67
2022/07/23 07:15:45;;;;;;;2.40;1.27;;;30.20;74.60;;;;;;5071188;28;20411;-67
2022/07/23 07:18:11;;;;;;;1.13;0.80;;;27.30;71.90;;;;;;5071696;28;20032;-68
2022/07/23 07:20:36;;;;;;;2.50;0.80;;;27.60;75.10;;;;;;5053941;28;20044;-67
2022/07/23 07:23:02;;;;;;;1.02;0.68;;;26.10;74.40;;;;;;5070566;28;20080;-68
2022/07/23 07:25:28;;;;;;;1.58;1.20;;;26.20;78.10;;;;;;5050921;28;20055;-67
2022/07/23 07:27:53;;;;;;;2.47;0.90;;;25.80;77.70;;;;;;5056676;28;20036;-67
2022/07/23 07:30:19;;;;;;;1.23;0.73;;;25.20;79.10;;;;;;5061873;28;20386;-67
2022/07/23 07:32:45;;;;;;;1.55;0.70;;;25.80;80.10;;;;;;5062355;28;20442;-67
2022/07/23 07:35:10;;;;;;;1.98;0.50;;;26.80;78.70;;;;;;5071556;28;20487;-67
2022/07/23 07:37:37;;;;;;;1.58;0.40;;;27.30;73.50;;;;;;5081853;22;20546;-68
2022/07/23 07:40:03;;;;;;;1.10;0.40;;;26.70;74.50;;;;;;5068032;28;20052;-68
2022/07/23 07:42:28;;;;;;;3.13;0.63;;;26.40;72.20;;;;;;5072078;28;20044;-68
2022/07/23 07:44:54;;;;;;;1.77;0.52;;;25.90;76.40;;;;;;5073429;28;20389;-68
2022/07/23 07:47:20;;;;;;;1.70;0.60;;;25.30;78.10;;;;;;5063059;28;20079;-68
2022/07/23 07:49:45;;;;;;;0.73;0.40;;;24.60;79.70;;;;;;5070087;28;20069;-67
2022/07/23 07:52:11;;;;;;;0.68;0.30;;;23.90;81.40;;;;;;5067395;28;20420;-68
2022/07/23 07:54:37;;;;;;;2.47;0.50;;;23.40;82.30;;;;;;5041711;28;20044;-68
2022/07/23 07:57:02;;;;;;;1.15;0.50;;;23.10;83.60;;;;;;5072069;28;20047;-67
2022/07/23 07:59:28;;;;;;;1.50;0.50;;;23.60;84.30;;;;;;5067281;28;20040;-67
2022/07/23 08:01:53;;;;;;;0.80;0.40;;;22.70;83.90;;;;;;5066352;28;20115;-66
2022/07/23 08:04:19;;;;;;;0.70;0.30;;;23.60;83.00;;;;;;5085974;28;20136;-67
2022/07/23 08:06:45;;;;;;;0.57;0.32;;;24.70;81.50;;;;;;5052940;28;20139;-67
2022/07/23 08:09:10;;;;;;;2.08;0.50;;;25.60;80.30;;;;;;5068512;28;20068;-66
2022/07/23 08:11:36;;;;;;;1.17;0.40;;;26.10;78.40;;;;;;5064503;28;20041;-67
2022/07/23 08:14:02;;;;;;;1.42;0.30;;;25.70;77.10;;;;;;5051161;28;20048;-66
2022/07/23 08:16:27;;;;;;;1.45;0.40;;;24.60;75.30;;;;;;5057734;28;20036;-66
2022/07/23 08:18:53;;;;;;;0.52;0.45;;;24.20;77.30;;;;;;5063848;28;20367;-67
2022/07/23 08:21:18;;;;;;;1.15;0.30;;;23.90;79.00;;;;;;5069795;28;20059;-66
2022/07/23 08:23:44;;;;;;;0.75;0.43;;;23.70;78.90;;;;;;5064304;28;20048;-67
2022/07/23 08:26:10;;;;;;;0.70;0.30;;;23.40;78.70;;;;;;5052148;28;20424;-67
2022/07/23 08:28:35;;;;;;;0.60;0.45;;;23.30;79.00;;;;;;5067226;28;20086;-66
2022/07/23 08:31:01;;;;;;;1.10;0.40;;;23.10;78.90;;;;;;5061422;28;20117;-66
2022/07/23 08:33:26;;;;;;;0.80;0.40;;;22.80;78.40;;;;;;5054726;28;20387;-67
2022/07/23 08:35:52;;;;;;;1.10;0.38;;;22.40;78.90;;;;;;5063537;28;20039;-66
2022/07/23 08:38:21;;;;;;;2.65;0.60;;;22.30;80.70;;;;;;5069633;28;20080;-69
2022/07/23 08:40:49;;;;;;;1.27;0.50;;;22.00;79.40;;;;;;5070756;28;20048;-70
2022/07/23 08:43:19;;;;;;;2.08;0.40;;;22.00;80.80;;;;;;5070968;28;20371;-68
2022/07/23 08:45:47;;;;;;;2.50;0.67;;;22.00;82.00;;;;;;5070921;28;20044;-70
2022/07/23 08:48:18;;;;;;;0.50;0.30;;;22.00;81.60;;;;;;5072451;28;20044;-70
2022/07/23 08:50:50;;;;;;;1.00;0.60;;;22.10;82.70;;;;;;5071331;28;20036;-70
2022/07/23 08:53:17;;;;;;;1.40;0.50;;;21.80;81.20;;;;;;5070660;28;20098;-70
2022/07/23 08:55:45;;;;;;;3.67;0.38;;;21.90;81.30;;;;;;5072800;28;20039;-71
2022/07/23 08:58:11;;;;;;;0.47;0.40;;;22.00;83.50;;;;;;5072820;28;20037;-71
2022/07/23 09:00:37;;;;;;;1.55;0.57;;;22.10;83.70;;;;;;5071112;28;20052;-68
2022/07/23 09:03:02;;;;;;;0.40;0.30;;;22.30;81.40;;;;;;5071146;28;20048;-69
2022/07/23 09:05:28;;;;;;;1.25;0.40;;;22.30;82.10;;;;;;5072690;28;20043;-68
2022/07/23 09:08:15;;;;;;;1.52;0.30;;;22.40;82.10;;;;;;5068799;28;20049;-69
2022/07/23 09:10:44;;;;;;;1.25;0.38;;;22.30;82.00;;;;;;5067153;28;20472;-68
2022/07/23 09:13:28;;;;;;;0.60;0.40;;;22.40;82.50;;;;;;5087331;28;20071;-69
2022/07/23 09:16:00;;;;;;;0.82;0.40;;;22.50;81.50;;;;;;5066149;28;20036;-69
2022/07/23 09:18:31;;;;;;;0.80;0.45;;;22.20;79.10;;;;;;5069427;28;20478;-68
2022/07/23 09:21:10;;;;;;;0.63;0.60;;;22.50;81.30;;;;;;5069791;28;20038;-69
2022/07/23 09:23:49;;;;;;;0.45;0.45;;;22.80;81.50;;;;;;5069155;28;20071;-69
2022/07/23 09:26:36;;;;;;;0.70;0.40;;;22.70;81.00;;;;;;5071146;28;20086;-69
2022/07/23 09:29:05;;;;;;;0.90;0.40;;;22.80;81.70;;;;;;5071640;28;20068;-70
2022/07/23 09:31:34;;;;;;;1.75;0.47;;;22.60;80.30;;;;;;5065321;28;20048;-69
2022/07/23 09:34:26;;;;;;;0.85;0.35;;;22.70;81.70;;;;;;5057919;28;20076;-69
2022/07/23 09:36:58;;;;;;;1.42;0.52;;;22.90;81.90;;;;;;5065285;28;20055;-69
2022/07/23 09:39:32;;;;;;;0.93;0.50;;;22.90;80.10;;;;;;5062361;28;20044;-70
2022/07/23 09:42:11;;;;;;;1.15;0.70;;;23.00;82.10;;;;;;5056320;28;20347;-69
2022/07/23 09:44:41;;;;;;;2.22;0.63;;;22.30;79.40;;;;;;5060989;28;20127;-70
2022/07/23 09:47:07;;;;;;;0.82;0.50;;;22.60;82.50;;;;;;5068341;28;20032;-70
2022/07/23 09:49:33;;;;;;;2.90;0.70;;;22.30;81.50;;;;;;5061081;28;20055;-69
2022/07/23 09:52:01;;;;;;;1.40;0.60;;;22.40;82.00;;;;;;5053602;28;20128;-69
2022/07/23 09:54:35;;;;;;;1.20;0.55;;;22.70;83.90;;;;;;5054994;28;20032;-69
2022/07/23 09:57:15;;;;;;;1.60;0.60;;;23.00;82.90;;;;;;5049763;28;20041;-69
2022/07/23 09:59:42;;;;;;;2.40;0.68;;;23.20;82.00;;;;;;5049593;28;20036;-70
2022/07/23 10:02:10;;;;;;;1.27;0.73;;;23.20;81.40;;;;;;5039506;28;20044;-70
2022/07/23 10:04:36;;;;;;;1.25;0.80;;;23.20;81.90;;;;;;5062128;28;20095;-70
2022/07/23 10:07:05;;;;;;;0.60;0.60;;;23.10;81.10;;;;;;5049023;28;20475;-70
2022/07/23 10:09:33;;;;;;;1.75;0.70;;;23.10;81.30;;;;;;5059857;28;20045;-69
2022/07/23 10:14:47;;;;;;;2.80;0.60;;;23.00;81.00;;;;;;5062973;28;21089;-69
2022/07/23 10:17:13;;;;;;;1.30;0.40;;;23.10;81.80;;;;;;5065824;28;20060;-70
2022/07/23 10:19:39;;;;;;;2.13;0.50;;;23.10;82.70;;;;;;5054467;28;20041;-70
2022/07/23 10:22:20;;;;;;;1.85;0.55;;;23.20;82.80;;;;;;5070085;28;20056;-69
2022/07/23 10:25:23;;;;;;;2.03;0.70;;;23.40;83.40;;;;;;5074255;28;20036;-69
2022/07/23 10:28:10;;;;;;;1.00;0.50;;;23.40;81.50;;;;;;5074134;28;20048;-69
2022/07/23 10:31:04;;;;;;;1.30;0.40;;;23.50;78.20;;;;;;5072775;28;20037;-70
2022/07/23 10:33:55;;;;;;;1.58;0.95;;;23.70;81.50;;;;;;5072160;28;20123;-70
2022/07/23 10:36:37;;;;;;;1.63;0.80;;;23.60;80.20;;;;;;5071458;28;20045;-69
2022/07/23 10:39:05;;;;;;;1.38;0.85;;;23.60;82.10;;;;;;5063078;28;20041;-69
2022/07/23 10:41:41;;;;;;;2.33;0.70;;;23.50;81.50;;;;;;5069619;28;20604;-69
2022/07/23 10:44:15;;;;;;;0.93;0.60;;;23.10;81.80;;;;;;5064082;28;20182;-69
2022/07/23 10:49:41;;;;;;;1.00;0.60;;;23.00;83.70;;;;;;5066902;28;20048;-69
2022/07/23 10:52:13;;;;;;;1.55;0.70;;;23.00;84.00;;;;;;5061736;28;20173;-69
2022/07/23 10:54:42;;;;;;;0.77;0.70;;;23.20;83.00;;;;;;5064419;28;20123;-70
2022/07/23 10:57:09;;;;;;;1.85;0.70;;;23.20;83.30;;;;;;5069124;28;20546;-70
2022/07/23 11:00:00;;;;;;;2.25;0.93;;;23.30;83.80;;;;;;5051933;28;20037;-69
2022/07/23 11:02:28;;;;;;;1.63;0.80;;;23.20;81.40;;;;;;5052495;28;20091;-69
2022/07/23 11:04:58;;;;;;;0.88;0.70;;;23.10;84.20;;;;;;5053134;28;20398;-69
2022/07/23 11:07:24;;;;;;;1.40;1.05;;;23.10;83.90;;;;;;5069677;28;20055;-69
2022/07/23 11:09:49;;;;;;;2.22;0.73;;;23.20;84.00;;;;;;5063666;28;20040;-70
2022/07/23 11:12:21;;;;;;;2.50;1.00;;;23.30;85.00;;;;;;5065710;28;20486;-69
2022/07/23 11:15:12;;;;;;;2.15;0.80;;;23.50;81.50;;;;;;5088007;28;20068;-69
2022/07/23 11:17:59;;;;;;;1.75;0.85;;;23.30;82.30;;;;;;5067378;28;20037;-69
2022/07/23 11:20:25;;;;;;;1.98;0.90;;;23.60;83.30;;;;;;5069707;28;20478;-69
2022/07/23 11:22:51;;;;;;;2.55;0.80;;;23.70;83.40;;;;;;5057067;28;20034;-69
2022/07/23 11:25:22;;;;;;;3.70;0.80;;;23.60;82.10;;;;;;5069489;28;20057;-69
2022/07/23 11:27:51;;;;;;;2.50;1.00;;;23.20;82.10;;;;;;5060380;28;20048;-69
2022/07/23 11:30:26;;;;;;;2.25;0.98;;;23.10;82.50;;;;;;5070389;28;20055;-67
2022/07/23 11:32:52;;;;;;;1.58;0.98;;;23.10;82.90;;;;;;5064289;28;20116;-67
2022/07/23 11:35:28;;;;;;;2.67;1.10;;;23.10;83.50;;;;;;5068391;28;20469;-68
2022/07/23 11:38:03;;;;;;;1.38;0.70;;;23.30;84.00;;;;;;5068950;28;20049;-67
2022/07/23 11:40:29;;;;;;;2.65;0.90;;;23.30;83.40;;;;;;5068976;28;20124;-67
2022/07/23 11:43:04;;;;;;;2.17;0.90;;;23.60;83.50;;;;;;5064785;28;20127;-68
2022/07/23 11:45:37;;;;;;;11.75;1.02;;;23.40;83.20;;;;;;5064345;28;20055;-68
2022/07/23 11:48:06;;;;;;;1.70;0.75;;;23.40;83.00;;;;;;5056741;28;20048;-67
2022/07/23 11:50:32;;;;;;;2.25;0.88;;;23.10;83.60;;;;;;5057850;28;20040;-68
2022/07/23 11:52:58;;;;;;;1.85;1.00;;;23.60;83.60;;;;;;5056175;28;20048;-67
2022/07/23 11:55:24;;;;;;;1.48;1.00;;;23.60;81.80;;;;;;5068023;28;20052;-67
2022/07/23 11:57:52;;;;;;;3.42;0.70;;;23.70;83.20;;;;;;5059289;28;20043;-67
2022/07/23 12:00:23;;;;;;;2.03;0.93;;;23.70;84.40;;;;;;5056601;28;20781;-68
2022/07/23 12:02:55;;;;;;;1.73;1.00;;;23.00;82.80;;;;;;5067143;28;20043;-67
2022/07/23 12:05:23;;;;;;;3.20;0.90;;;23.20;84.80;;;;;;5065492;28;20067;-68
2022/07/23 12:07:51;;;;;;;2.70;1.20;;;23.30;85.40;;;;;;5069944;28;20120;-67
2022/07/23 12:10:25;;;;;;;2.03;0.95;;;23.70;84.30;;;;;;5070096;28;20064;-67
2022/07/23 12:12:57;;;;;;;1.60;1.08;;;23.80;82.60;;;;;;5071600;28;20038;-68
2022/07/23 12:15:26;;;;;;;2.42;1.10;;;23.80;82.10;;;;;;5068037;28;20460;-67
2022/07/23 12:17:53;;;;;;;2.25;1.08;;;23.80;83.90;;;;;;5068281;28;20049;-67
2022/07/23 12:20:25;;;;;;;4.10;1.13;;;23.70;84.30;;;;;;5062028;28;20067;-67
2022/07/23 12:22:59;;;;;;;3.17;1.10;;;23.70;84.10;;;;;;5070071;28;20135;-67
2022/07/23 12:25:30;;;;;;;3.08;0.82;;;23.00;85.30;;;;;;5065451;28;20044;-67
2022/07/23 12:28:06;;;;;;;1.45;0.90;;;23.40;86.50;;;;;;5062043;28;20051;-68
2022/07/23 12:30:39;;;;;;;1.77;0.90;;;23.50;86.90;;;;;;5057186;28;20531;-67
2022/07/23 12:33:07;;;;;;;1.10;1.00;;;23.70;85.40;;;;;;5053885;28;20482;-67
2022/07/23 12:35:42;;;;;;;3.55;1.20;;;23.60;85.40;;;;;;5058711;28;20159;-66
2022/07/23 12:38:11;;;;;;;1.55;1.00;;;23.10;86.10;;;;;;5046631;28;20060;-67
2022/07/23 12:40:44;;;;;;;1.77;1.27;;;23.20;86.50;;;;;;5056178;28;20060;-67
2022/07/23 12:43:23;;;;;;;3.63;1.42;;;23.50;86.00;;;;;;5065455;28;20528;-67
2022/07/23 12:46:16;;;;;;;2.45;1.30;;;22.80;86.10;;;;;;5068611;28;20091;-67
2022/07/23 12:48:51;;;;;;;2.58;1.35;;;23.20;87.40;;;;;;5069285;28;20051;-66
2022/07/23 12:51:30;;;;;;;1.88;1.35;;;23.10;86.10;;;;;;5070582;28;20478;-66
2022/07/23 12:54:15;;;;;;;1.60;1.20;;;23.30;85.50;;;;;;5059071;28;20041;-67
2022/07/23 12:56:44;;;;;;;1.88;1.10;;;23.60;85.00;;;;;;5061372;28;20032;-67
2022/07/23 12:59:16;;;;;;;2.25;1.30;;;23.70;86.90;;;;;;5054952;28;20076;-67